sensor_id;sensor_type;location;lat;lon;timestamp;P1;durP1;ratioP1;P2;durP2;ratioP2
74369;SDS011;71062;44.520;11.342;2024-03-02T00:01:17;15.02;;;8.88;;
74369;SDS011;71062;44.520;11.342;2024-03-02T00:03:42;14.02;;;8.43;;
74369;SDS011;71062;44.520;11.342;2024-03-02T00:06:09;12.38;;;8.52;;
74369;SDS011;71062;44.520;11.342;2024-03-02T00:08:35;16.02;;;9.77;;
74369;SDS011;71062;44.520;11.342;2024-03-02T00:11:00;14.50;;;9.15;;
74369;SDS011;71062;44.520;11.342;2024-03-02T00:15:56;14.90;;;8.75;;
74369;SDS011;71062;44.520;11.342;2024-03-02T00:18:32;11.63;;;8.30;;
74369;SDS011;71062;44.520;11.342;2024-03-02T00:20:59;13.57;;;9.25;;
74369;SDS011;71062;44.520;11.342;2024-03-02T00:23:43;11.77;;;8.93;;
74369;SDS011;71062;44.520;11.342;2024-03-02T00:26:08;15.20;;;9.07;;
74369;SDS011;71062;44.520;11.342;2024-03-02T00:28:36;15.20;;;9.52;;
74369;SDS011;71062;44.520;11.342;2024-03-02T00:33:33;14.57;;;9.38;;
74369;SDS011;71062;44.520;11.342;2024-03-02T00:35:59;15.82;;;10.00;;
74369;SDS011;71062;44.520;11.342;2024-03-02T00:38:25;14.98;;;10.50;;
74369;SDS011;71062;44.520;11.342;2024-03-02T00:40:51;17.40;;;9.90;;
74369;SDS011;71062;44.520;11.342;2024-03-02T00:45:48;15.27;;;10.40;;
74369;SDS011;71062;44.520;11.342;2024-03-02T00:48:15;14.40;;;9.88;;
74369;SDS011;71062;44.520;11.342;2024-03-02T00:50:41;16.45;;;10.35;;
74369;SDS011;71062;44.520;11.342;2024-03-02T00:53:08;15.32;;;10.00;;
74369;SDS011;71062;44.520;11.342;2024-03-02T00:55:36;15.48;;;10.55;;
74369;SDS011;71062;44.520;11.342;2024-03-02T00:58:02;14.77;;;10.00;;
74369;SDS011;71062;44.520;11.342;2024-03-02T01:00:27;14.77;;;9.80;;
74369;SDS011;71062;44.520;11.342;2024-03-02T01:02:53;14.82;;;9.88;;
74369;SDS011;71062;44.520;11.342;2024-03-02T01:05:18;15.20;;;10.40;;
74369;SDS011;71062;44.520;11.342;2024-03-02T01:07:44;14.98;;;10.40;;
74369;SDS011;71062;44.520;11.342;2024-03-02T01:10:10;13.45;;;9.57;;
74369;SDS011;71062;44.520;11.342;2024-03-02T01:12:35;20.35;;;10.45;;
74369;SDS011;71062;44.520;11.342;2024-03-02T01:15:01;16.10;;;10.20;;
74369;SDS011;71062;44.520;11.342;2024-03-02T01:17:28;15.00;;;11.02;;
74369;SDS011;71062;44.520;11.342;2024-03-02T01:19:54;16.52;;;11.25;;
74369;SDS011;71062;44.520;11.342;2024-03-02T01:22:19;17.50;;;10.77;;
74369;SDS011;71062;44.520;11.342;2024-03-02T01:24:50;15.32;;;10.63;;
74369;SDS011;71062;44.520;11.342;2024-03-02T01:27:15;13.35;;;9.80;;
74369;SDS011;71062;44.520;11.342;2024-03-02T01:29:41;14.57;;;10.57;;
74369;SDS011;71062;44.520;11.342;2024-03-02T01:32:06;14.75;;;9.80;;
74369;SDS011;71062;44.520;11.342;2024-03-02T01:34:31;15.23;;;10.23;;
74369;SDS011;71062;44.520;11.342;2024-03-02T01:36:57;16.67;;;10.57;;
74369;SDS011;71062;44.520;11.342;2024-03-02T01:39:22;15.43;;;11.00;;
74369;SDS011;71062;44.520;11.342;2024-03-02T01:41:47;16.37;;;11.27;;
74369;SDS011;71062;44.520;11.342;2024-03-02T01:44:13;16.37;;;10.90;;
74369;SDS011;71062;44.520;11.342;2024-03-02T01:46:38;16.67;;;12.00;;
74369;SDS011;71062;44.520;11.342;2024-03-02T01:49:04;18.73;;;11.43;;
74369;SDS011;71062;44.520;11.342;2024-03-02T01:51:29;17.48;;;12.07;;
74369;SDS011;71062;44.520;11.342;2024-03-02T01:53:55;23.45;;;12.63;;
74369;SDS011;71062;44.520;11.342;2024-03-02T01:56:20;15.70;;;10.90;;
74369;SDS011;71062;44.520;11.342;2024-03-02T01:58:45;17.77;;;10.90;;
74369;SDS011;71062;44.520;11.342;2024-03-02T02:01:11;16.58;;;10.23;;
74369;SDS011;71062;44.520;11.342;2024-03-02T02:03:36;16.05;;;10.90;;
74369;SDS011;71062;44.520;11.342;2024-03-02T02:06:02;16.25;;;10.38;;
74369;SDS011;71062;44.520;11.342;2024-03-02T02:08:27;16.95;;;10.90;;
74369;SDS011;71062;44.520;11.342;2024-03-02T02:10:53;15.95;;;10.15;;
74369;SDS011;71062;44.520;11.342;2024-03-02T02:13:18;14.63;;;9.65;;
74369;SDS011;71062;44.520;11.342;2024-03-02T02:15:43;16.88;;;9.25;;
74369;SDS011;71062;44.520;11.342;2024-03-02T02:18:09;15.87;;;9.27;;
74369;SDS011;71062;44.520;11.342;2024-03-02T02:20:34;16.97;;;10.23;;
74369;SDS011;71062;44.520;11.342;2024-03-02T02:23:00;16.30;;;8.77;;
74369;SDS011;71062;44.520;11.342;2024-03-02T02:25:26;15.27;;;9.68;;
74369;SDS011;71062;44.520;11.342;2024-03-02T02:27:52;13.38;;;8.73;;
74369;SDS011;71062;44.520;11.342;2024-03-02T02:30:18;16.08;;;9.30;;
74369;SDS011;71062;44.520;11.342;2024-03-02T02:32:44;14.68;;;9.27;;
74369;SDS011;71062;44.520;11.342;2024-03-02T02:35:09;15.83;;;9.27;;
74369;SDS011;71062;44.520;11.342;2024-03-02T02:37:34;13.90;;;9.10;;
74369;SDS011;71062;44.520;11.342;2024-03-02T02:40:00;15.07;;;9.07;;
74369;SDS011;71062;44.520;11.342;2024-03-02T02:42:25;15.80;;;8.63;;
74369;SDS011;71062;44.520;11.342;2024-03-02T02:44:51;15.40;;;9.68;;
74369;SDS011;71062;44.520;11.342;2024-03-02T02:47:16;14.23;;;8.57;;
74369;SDS011;71062;44.520;11.342;2024-03-02T02:49:41;14.55;;;9.57;;
74369;SDS011;71062;44.520;11.342;2024-03-02T02:52:07;16.25;;;9.18;;
74369;SDS011;71062;44.520;11.342;2024-03-02T02:54:32;14.63;;;9.30;;
74369;SDS011;71062;44.520;11.342;2024-03-02T02:56:57;12.60;;;8.52;;
74369;SDS011;71062;44.520;11.342;2024-03-02T02:59:24;16.77;;;9.60;;
74369;SDS011;71062;44.520;11.342;2024-03-02T03:01:51;17.07;;;9.40;;
74369;SDS011;71062;44.520;11.342;2024-03-02T03:04:16;17.77;;;9.63;;
74369;SDS011;71062;44.520;11.342;2024-03-02T03:06:42;16.17;;;9.70;;
74369;SDS011;71062;44.520;11.342;2024-03-02T03:09:08;12.97;;;9.23;;
74369;SDS011;71062;44.520;11.342;2024-03-02T03:11:36;14.85;;;9.18;;
74369;SDS011;71062;44.520;11.342;2024-03-02T03:14:01;13.73;;;9.93;;
74369;SDS011;71062;44.520;11.342;2024-03-02T03:16:27;14.32;;;9.48;;
74369;SDS011;71062;44.520;11.342;2024-03-02T03:18:52;13.98;;;8.65;;
74369;SDS011;71062;44.520;11.342;2024-03-02T03:21:18;13.65;;;9.90;;
74369;SDS011;71062;44.520;11.342;2024-03-02T03:23:44;16.60;;;9.80;;
74369;SDS011;71062;44.520;11.342;2024-03-02T03:26:10;13.68;;;9.60;;
74369;SDS011;71062;44.520;11.342;2024-03-02T03:28:35;18.67;;;9.57;;
74369;SDS011;71062;44.520;11.342;2024-03-02T03:31:01;17.43;;;9.83;;
74369;SDS011;71062;44.520;11.342;2024-03-02T03:33:27;17.58;;;9.98;;
74369;SDS011;71062;44.520;11.342;2024-03-02T03:35:52;15.93;;;10.45;;
74369;SDS011;71062;44.520;11.342;2024-03-02T03:38:18;15.32;;;10.48;;
74369;SDS011;71062;44.520;11.342;2024-03-02T03:40:44;14.90;;;10.15;;
74369;SDS011;71062;44.520;11.342;2024-03-02T03:43:10;17.13;;;10.50;;
74369;SDS011;71062;44.520;11.342;2024-03-02T03:45:35;19.15;;;10.68;;
74369;SDS011;71062;44.520;11.342;2024-03-02T03:48:02;17.90;;;10.27;;
74369;SDS011;71062;44.520;11.342;2024-03-02T03:50:31;16.77;;;10.50;;
74369;SDS011;71062;44.520;11.342;2024-03-02T03:52:59;19.10;;;10.55;;
74369;SDS011;71062;44.520;11.342;2024-03-02T03:55:24;15.45;;;10.73;;
74369;SDS011;71062;44.520;11.342;2024-03-02T03:57:50;15.90;;;9.98;;
74369;SDS011;71062;44.520;11.342;2024-03-02T04:00:15;16.20;;;10.00;;
74369;SDS011;71062;44.520;11.342;2024-03-02T04:02:41;14.63;;;9.50;;
74369;SDS011;71062;44.520;11.342;2024-03-02T04:05:06;14.18;;;9.48;;
74369;SDS011;71062;44.520;11.342;2024-03-02T04:07:36;13.85;;;8.95;;
74369;SDS011;71062;44.520;11.342;2024-03-02T04:10:06;12.93;;;9.05;;
74369;SDS011;71062;44.520;11.342;2024-03-02T04:12:33;15.30;;;9.98;;
74369;SDS011;71062;44.520;11.342;2024-03-02T04:14:58;13.53;;;8.93;;
74369;SDS011;71062;44.520;11.342;2024-03-02T04:17:23;14.27;;;9.70;;
74369;SDS011;71062;44.520;11.342;2024-03-02T04:19:49;15.95;;;9.88;;
74369;SDS011;71062;44.520;11.342;2024-03-02T04:22:15;16.77;;;11.25;;
74369;SDS011;71062;44.520;11.342;2024-03-02T04:24:40;14.60;;;9.87;;
74369;SDS011;71062;44.520;11.342;2024-03-02T04:27:05;15.05;;;9.80;;
74369;SDS011;71062;44.520;11.342;2024-03-02T04:29:31;14.27;;;10.13;;
74369;SDS011;71062;44.520;11.342;2024-03-02T04:31:56;13.10;;;9.88;;
74369;SDS011;71062;44.520;11.342;2024-03-02T04:34:21;17.13;;;10.32;;
74369;SDS011;71062;44.520;11.342;2024-03-02T04:36:48;14.82;;;10.13;;
74369;SDS011;71062;44.520;11.342;2024-03-02T04:39:13;14.52;;;10.40;;
74369;SDS011;71062;44.520;11.342;2024-03-02T04:41:40;15.82;;;10.65;;
74369;SDS011;71062;44.520;11.342;2024-03-02T04:44:05;15.33;;;11.17;;
74369;SDS011;71062;44.520;11.342;2024-03-02T04:46:33;13.32;;;9.82;;
74369;SDS011;71062;44.520;11.342;2024-03-02T04:48:58;13.23;;;9.88;;
74369;SDS011;71062;44.520;11.342;2024-03-02T04:51:23;13.13;;;9.73;;
74369;SDS011;71062;44.520;11.342;2024-03-02T04:53:49;12.90;;;9.63;;
74369;SDS011;71062;44.520;11.342;2024-03-02T04:56:14;16.13;;;10.60;;
74369;SDS011;71062;44.520;11.342;2024-03-02T04:58:45;12.63;;;9.13;;
74369;SDS011;71062;44.520;11.342;2024-03-02T05:01:10;13.57;;;9.20;;
74369;SDS011;71062;44.520;11.342;2024-03-02T05:03:36;13.53;;;9.10;;
74369;SDS011;71062;44.520;11.342;2024-03-02T05:06:01;14.97;;;10.17;;
74369;SDS011;71062;44.520;11.342;2024-03-02T05:08:27;14.25;;;9.80;;
74369;SDS011;71062;44.520;11.342;2024-03-02T05:10:55;14.63;;;9.50;;
74369;SDS011;71062;44.520;11.342;2024-03-02T05:13:40;14.02;;;9.48;;
74369;SDS011;71062;44.520;11.342;2024-03-02T05:16:06;14.30;;;10.60;;
74369;SDS011;71062;44.520;11.342;2024-03-02T05:18:31;14.35;;;9.02;;
74369;SDS011;71062;44.520;11.342;2024-03-02T05:20:57;15.80;;;10.20;;
74369;SDS011;71062;44.520;11.342;2024-03-02T05:23:22;13.27;;;9.05;;
74369;SDS011;71062;44.520;11.342;2024-03-02T05:25:48;14.10;;;10.10;;
74369;SDS011;71062;44.520;11.342;2024-03-02T05:28:13;13.82;;;8.95;;
74369;SDS011;71062;44.520;11.342;2024-03-02T05:30:39;13.98;;;9.80;;
74369;SDS011;71062;44.520;11.342;2024-03-02T05:33:04;15.07;;;9.88;;
74369;SDS011;71062;44.520;11.342;2024-03-02T05:35:29;14.57;;;10.05;;
74369;SDS011;71062;44.520;11.342;2024-03-02T05:37:55;15.30;;;9.93;;
74369;SDS011;71062;44.520;11.342;2024-03-02T05:40:20;17.85;;;10.02;;
74369;SDS011;71062;44.520;11.342;2024-03-02T05:42:46;15.13;;;10.30;;
74369;SDS011;71062;44.520;11.342;2024-03-02T05:45:12;14.75;;;11.35;;
74369;SDS011;71062;44.520;11.342;2024-03-02T05:47:38;15.93;;;10.85;;
74369;SDS011;71062;44.520;11.342;2024-03-02T05:50:04;15.13;;;10.02;;
74369;SDS011;71062;44.520;11.342;2024-03-02T05:52:29;14.30;;;10.10;;
74369;SDS011;71062;44.520;11.342;2024-03-02T05:54:55;14.93;;;9.35;;
74369;SDS011;71062;44.520;11.342;2024-03-02T05:57:20;15.82;;;9.93;;
74369;SDS011;71062;44.520;11.342;2024-03-02T06:00:06;14.18;;;10.15;;
74369;SDS011;71062;44.520;11.342;2024-03-02T06:02:33;16.38;;;11.00;;
74369;SDS011;71062;44.520;11.342;2024-03-02T06:05:00;16.70;;;10.60;;
74369;SDS011;71062;44.520;11.342;2024-03-02T06:07:25;14.00;;;9.95;;
74369;SDS011;71062;44.520;11.342;2024-03-02T06:09:51;14.27;;;10.50;;
74369;SDS011;71062;44.520;11.342;2024-03-02T06:12:18;14.00;;;10.15;;
74369;SDS011;71062;44.520;11.342;2024-03-02T06:14:44;15.43;;;10.77;;
74369;SDS011;71062;44.520;11.342;2024-03-02T06:17:09;15.13;;;10.80;;
74369;SDS011;71062;44.520;11.342;2024-03-02T06:19:35;15.70;;;10.10;;
74369;SDS011;71062;44.520;11.342;2024-03-02T06:22:00;15.90;;;10.13;;
74369;SDS011;71062;44.520;11.342;2024-03-02T06:24:26;14.20;;;10.45;;
74369;SDS011;71062;44.520;11.342;2024-03-02T06:26:51;13.60;;;10.00;;
74369;SDS011;71062;44.520;11.342;2024-03-02T06:29:17;18.52;;;11.23;;
74369;SDS011;71062;44.520;11.342;2024-03-02T06:31:42;15.23;;;10.07;;
74369;SDS011;71062;44.520;11.342;2024-03-02T06:34:08;13.77;;;9.90;;
74369;SDS011;71062;44.520;11.342;2024-03-02T06:36:34;16.05;;;10.02;;
74369;SDS011;71062;44.520;11.342;2024-03-02T06:39:00;15.40;;;10.40;;
74369;SDS011;71062;44.520;11.342;2024-03-02T06:41:26;19.35;;;11.88;;
74369;SDS011;71062;44.520;11.342;2024-03-02T06:43:51;14.63;;;10.43;;
74369;SDS011;71062;44.520;11.342;2024-03-02T06:46:24;17.70;;;11.25;;
74369;SDS011;71062;44.520;11.342;2024-03-02T06:48:50;19.10;;;11.25;;
74369;SDS011;71062;44.520;11.342;2024-03-02T06:51:15;14.00;;;10.45;;
74369;SDS011;71062;44.520;11.342;2024-03-02T06:53:41;15.50;;;11.10;;
74369;SDS011;71062;44.520;11.342;2024-03-02T06:56:06;15.68;;;10.93;;
74369;SDS011;71062;44.520;11.342;2024-03-02T06:58:32;15.32;;;10.93;;
74369;SDS011;71062;44.520;11.342;2024-03-02T07:00:58;15.20;;;10.88;;
74369;SDS011;71062;44.520;11.342;2024-03-02T07:03:25;19.73;;;11.38;;
74369;SDS011;71062;44.520;11.342;2024-03-02T07:05:51;14.40;;;10.60;;
74369;SDS011;71062;44.520;11.342;2024-03-02T07:08:16;17.30;;;11.02;;
74369;SDS011;71062;44.520;11.342;2024-03-02T07:10:42;18.33;;;11.15;;
74369;SDS011;71062;44.520;11.342;2024-03-02T07:13:07;14.35;;;10.30;;
74369;SDS011;71062;44.520;11.342;2024-03-02T07:15:33;17.73;;;10.95;;
74369;SDS011;71062;44.520;11.342;2024-03-02T07:18:30;15.77;;;10.55;;
74369;SDS011;71062;44.520;11.342;2024-03-02T07:20:56;16.20;;;10.60;;
74369;SDS011;71062;44.520;11.342;2024-03-02T07:23:28;16.40;;;11.02;;
74369;SDS011;71062;44.520;11.342;2024-03-02T07:25:53;15.63;;;10.95;;
74369;SDS011;71062;44.520;11.342;2024-03-02T07:28:22;16.80;;;11.13;;
74369;SDS011;71062;44.520;11.342;2024-03-02T07:30:47;16.83;;;10.68;;
74369;SDS011;71062;44.520;11.342;2024-03-02T07:33:14;17.45;;;10.60;;
74369;SDS011;71062;44.520;11.342;2024-03-02T07:35:42;16.38;;;10.40;;
74369;SDS011;71062;44.520;11.342;2024-03-02T07:38:08;15.55;;;10.50;;
74369;SDS011;71062;44.520;11.342;2024-03-02T07:40:34;15.02;;;10.18;;
74369;SDS011;71062;44.520;11.342;2024-03-02T07:42:59;14.50;;;10.27;;
74369;SDS011;71062;44.520;11.342;2024-03-02T07:45:25;15.05;;;10.32;;
74369;SDS011;71062;44.520;11.342;2024-03-02T07:47:50;13.82;;;9.90;;
74369;SDS011;71062;44.520;11.342;2024-03-02T07:50:16;17.30;;;10.50;;
74369;SDS011;71062;44.520;11.342;2024-03-02T07:52:41;13.43;;;9.93;;
74369;SDS011;71062;44.520;11.342;2024-03-02T07:55:07;14.18;;;10.68;;
74369;SDS011;71062;44.520;11.342;2024-03-02T07:57:32;13.45;;;10.60;;
74369;SDS011;71062;44.520;11.342;2024-03-02T07:59:58;15.07;;;10.80;;
74369;SDS011;71062;44.520;11.342;2024-03-02T08:02:24;13.88;;;9.95;;
74369;SDS011;71062;44.520;11.342;2024-03-02T08:04:51;13.88;;;9.73;;
74369;SDS011;71062;44.520;11.342;2024-03-02T08:07:17;16.38;;;10.55;;
74369;SDS011;71062;44.520;11.342;2024-03-02T08:09:42;14.65;;;9.80;;
74369;SDS011;71062;44.520;11.342;2024-03-02T08:12:08;16.17;;;9.70;;
74369;SDS011;71062;44.520;11.342;2024-03-02T08:14:33;13.63;;;9.57;;
74369;SDS011;71062;44.520;11.342;2024-03-02T08:16:59;14.23;;;10.30;;
74369;SDS011;71062;44.520;11.342;2024-03-02T08:19:26;13.68;;;9.40;;
74369;SDS011;71062;44.520;11.342;2024-03-02T08:21:52;15.57;;;9.13;;
74369;SDS011;71062;44.520;11.342;2024-03-02T08:24:19;14.70;;;9.73;;
74369;SDS011;71062;44.520;11.342;2024-03-02T08:26:44;12.93;;;9.20;;
74369;SDS011;71062;44.520;11.342;2024-03-02T08:29:10;13.35;;;9.38;;
74369;SDS011;71062;44.520;11.342;2024-03-02T08:31:36;13.43;;;10.05;;
74369;SDS011;71062;44.520;11.342;2024-03-02T08:34:02;16.27;;;9.70;;
74369;SDS011;71062;44.520;11.342;2024-03-02T08:36:27;12.40;;;9.17;;
74369;SDS011;71062;44.520;11.342;2024-03-02T08:38:55;12.95;;;8.65;;
74369;SDS011;71062;44.520;11.342;2024-03-02T08:41:22;11.85;;;8.75;;
74369;SDS011;71062;44.520;11.342;2024-03-02T08:43:48;12.30;;;8.43;;
74369;SDS011;71062;44.520;11.342;2024-03-02T08:46:14;13.68;;;9.02;;
74369;SDS011;71062;44.520;11.342;2024-03-02T08:48:39;14.40;;;9.25;;
74369;SDS011;71062;44.520;11.342;2024-03-02T08:51:05;12.93;;;8.98;;
74369;SDS011;71062;44.520;11.342;2024-03-02T08:53:33;15.93;;;9.05;;
74369;SDS011;71062;44.520;11.342;2024-03-02T08:56:01;12.93;;;8.82;;
74369;SDS011;71062;44.520;11.342;2024-03-02T08:58:27;13.77;;;9.18;;
74369;SDS011;71062;44.520;11.342;2024-03-02T09:00:52;14.77;;;8.85;;
74369;SDS011;71062;44.520;11.342;2024-03-02T09:03:17;12.48;;;8.60;;
74369;SDS011;71062;44.520;11.342;2024-03-02T09:05:43;12.85;;;7.90;;
74369;SDS011;71062;44.520;11.342;2024-03-02T09:08:08;12.98;;;8.40;;
74369;SDS011;71062;44.520;11.342;2024-03-02T09:10:34;12.15;;;8.82;;
74369;SDS011;71062;44.520;11.342;2024-03-02T09:12:59;12.07;;;9.20;;
74369;SDS011;71062;44.520;11.342;2024-03-02T09:15:25;12.05;;;9.05;;
74369;SDS011;71062;44.520;11.342;2024-03-02T09:17:51;13.82;;;9.32;;
74369;SDS011;71062;44.520;11.342;2024-03-02T09:20:17;12.05;;;8.50;;
74369;SDS011;71062;44.520;11.342;2024-03-02T09:22:42;13.05;;;8.25;;
74369;SDS011;71062;44.520;11.342;2024-03-02T09:25:08;11.90;;;8.63;;
74369;SDS011;71062;44.520;11.342;2024-03-02T09:27:38;13.10;;;8.63;;
74369;SDS011;71062;44.520;11.342;2024-03-02T09:30:07;12.05;;;8.48;;
74369;SDS011;71062;44.520;11.342;2024-03-02T09:32:33;12.05;;;9.27;;
74369;SDS011;71062;44.520;11.342;2024-03-02T09:34:59;12.80;;;8.35;;
74369;SDS011;71062;44.520;11.342;2024-03-02T09:37:26;12.15;;;7.93;;
74369;SDS011;71062;44.520;11.342;2024-03-02T09:39:52;13.63;;;9.15;;
74369;SDS011;71062;44.520;11.342;2024-03-02T09:42:18;14.25;;;9.10;;
74369;SDS011;71062;44.520;11.342;2024-03-02T09:44:44;14.30;;;9.43;;
74369;SDS011;71062;44.520;11.342;2024-03-02T09:47:10;12.75;;;8.90;;
74369;SDS011;71062;44.520;11.342;2024-03-02T09:49:35;15.45;;;8.75;;
74369;SDS011;71062;44.520;11.342;2024-03-02T09:52:01;11.30;;;7.95;;
74369;SDS011;71062;44.520;11.342;2024-03-02T09:54:28;11.73;;;7.22;;
74369;SDS011;71062;44.520;11.342;2024-03-02T09:56:54;12.57;;;7.57;;
74369;SDS011;71062;44.520;11.342;2024-03-02T09:59:19;12.15;;;8.25;;
74369;SDS011;71062;44.520;11.342;2024-03-02T10:02:01;10.80;;;8.60;;
74369;SDS011;71062;44.520;11.342;2024-03-02T10:04:27;10.23;;;7.90;;
74369;SDS011;71062;44.520;11.342;2024-03-02T10:09:37;8.50;;;6.97;;
74369;SDS011;71062;44.520;11.342;2024-03-02T10:12:06;9.38;;;6.50;;
74369;SDS011;71062;44.520;11.342;2024-03-02T10:14:32;9.45;;;6.65;;
74369;SDS011;71062;44.520;11.342;2024-03-02T10:17:17;10.90;;;7.22;;
74369;SDS011;71062;44.520;11.342;2024-03-02T10:19:42;10.27;;;6.15;;
74369;SDS011;71062;44.520;11.342;2024-03-02T10:22:08;9.35;;;6.28;;
74369;SDS011;71062;44.520;11.342;2024-03-02T10:24:38;9.93;;;6.72;;
74369;SDS011;71062;44.520;11.342;2024-03-02T10:27:10;8.52;;;5.78;;
74369;SDS011;71062;44.520;11.342;2024-03-02T10:29:39;8.63;;;6.28;;
74369;SDS011;71062;44.520;11.342;2024-03-02T10:32:05;8.98;;;5.78;;
74369;SDS011;71062;44.520;11.342;2024-03-02T10:34:31;9.30;;;5.70;;
74369;SDS011;71062;44.520;11.342;2024-03-02T10:36:57;10.73;;;5.90;;
74369;SDS011;71062;44.520;11.342;2024-03-02T10:39:23;6.95;;;5.15;;
74369;SDS011;71062;44.520;11.342;2024-03-02T10:41:49;7.38;;;5.07;;
74369;SDS011;71062;44.520;11.342;2024-03-02T10:44:14;6.15;;;4.85;;
74369;SDS011;71062;44.520;11.342;2024-03-02T10:46:40;7.13;;;5.28;;
74369;SDS011;71062;44.520;11.342;2024-03-02T10:49:06;7.33;;;5.27;;
74369;SDS011;71062;44.520;11.342;2024-03-02T10:51:32;7.00;;;5.25;;
74369;SDS011;71062;44.520;11.342;2024-03-02T10:53:58;9.10;;;5.60;;
74369;SDS011;71062;44.520;11.342;2024-03-02T10:56:30;7.03;;;5.50;;
74369;SDS011;71062;44.520;11.342;2024-03-02T10:58:59;6.93;;;5.68;;
74369;SDS011;71062;44.520;11.342;2024-03-02T11:01:26;7.18;;;5.38;;
74369;SDS011;71062;44.520;11.342;2024-03-02T11:03:52;7.18;;;5.28;;
74369;SDS011;71062;44.520;11.342;2024-03-02T11:06:18;8.52;;;5.47;;
74369;SDS011;71062;44.520;11.342;2024-03-02T11:08:44;8.18;;;4.90;;
74369;SDS011;71062;44.520;11.342;2024-03-02T11:11:15;5.90;;;4.70;;
74369;SDS011;71062;44.520;11.342;2024-03-02T11:13:42;5.03;;;3.70;;
74369;SDS011;71062;44.520;11.342;2024-03-02T11:16:14;6.60;;;4.07;;
74369;SDS011;71062;44.520;11.342;2024-03-02T11:18:42;6.13;;;3.90;;
74369;SDS011;71062;44.520;11.342;2024-03-02T11:21:08;5.97;;;3.85;;
74369;SDS011;71062;44.520;11.342;2024-03-02T11:23:34;4.40;;;3.50;;
74369;SDS011;71062;44.520;11.342;2024-03-02T11:28:47;5.07;;;3.03;;
74369;SDS011;71062;44.520;11.342;2024-03-02T11:31:13;5.25;;;3.38;;
74369;SDS011;71062;44.520;11.342;2024-03-02T11:33:38;6.43;;;2.90;;
74369;SDS011;71062;44.520;11.342;2024-03-02T11:36:05;4.85;;;2.83;;
74369;SDS011;71062;44.520;11.342;2024-03-02T11:38:32;7.15;;;2.90;;
74369;SDS011;71062;44.520;11.342;2024-03-02T11:40:59;3.05;;;2.22;;
74369;SDS011;71062;44.520;11.342;2024-03-02T11:43:27;3.33;;;1.92;;
74369;SDS011;71062;44.520;11.342;2024-03-02T11:46:03;3.50;;;1.95;;
74369;SDS011;71062;44.520;11.342;2024-03-02T11:48:32;3.65;;;1.80;;
74369;SDS011;71062;44.520;11.342;2024-03-02T11:50:58;4.03;;;2.28;;
74369;SDS011;71062;44.520;11.342;2024-03-02T11:53:24;4.53;;;2.10;;
74369;SDS011;71062;44.520;11.342;2024-03-02T11:55:52;4.53;;;2.20;;
74369;SDS011;71062;44.520;11.342;2024-03-02T11:58:20;7.95;;;2.22;;
74369;SDS011;71062;44.520;11.342;2024-03-02T12:00:46;3.28;;;1.98;;
74369;SDS011;71062;44.520;11.342;2024-03-02T12:03:12;3.50;;;1.95;;
74369;SDS011;71062;44.520;11.342;2024-03-02T12:05:38;2.65;;;1.65;;
74369;SDS011;71062;44.520;11.342;2024-03-02T12:08:06;3.60;;;1.77;;
74369;SDS011;71062;44.520;11.342;2024-03-02T12:10:31;3.38;;;1.83;;
74369;SDS011;71062;44.520;11.342;2024-03-02T12:13:00;4.07;;;1.80;;
74369;SDS011;71062;44.520;11.342;2024-03-02T12:15:27;2.78;;;1.67;;
74369;SDS011;71062;44.520;11.342;2024-03-02T12:17:56;2.72;;;2.00;;
74369;SDS011;71062;44.520;11.342;2024-03-02T12:20:22;2.67;;;1.58;;
74369;SDS011;71062;44.520;11.342;2024-03-02T12:22:52;2.67;;;1.30;;
74369;SDS011;71062;44.520;11.342;2024-03-02T12:25:17;3.40;;;1.55;;
74369;SDS011;71062;44.520;11.342;2024-03-02T12:27:43;2.40;;;1.40;;
74369;SDS011;71062;44.520;11.342;2024-03-02T12:30:09;3.50;;;1.20;;
74369;SDS011;71062;44.520;11.342;2024-03-02T12:32:37;2.70;;;1.20;;
74369;SDS011;71062;44.520;11.342;2024-03-02T12:35:04;2.75;;;1.30;;
74369;SDS011;71062;44.520;11.342;2024-03-02T12:37:30;1.50;;;1.10;;
74369;SDS011;71062;44.520;11.342;2024-03-02T12:39:55;2.83;;;1.25;;
74369;SDS011;71062;44.520;11.342;2024-03-02T12:42:21;4.63;;;1.10;;
74369;SDS011;71062;44.520;11.342;2024-03-02T12:44:46;3.08;;;1.08;;
74369;SDS011;71062;44.520;11.342;2024-03-02T12:47:12;2.42;;;1.38;;
74369;SDS011;71062;44.520;11.342;2024-03-02T12:49:39;3.35;;;1.50;;
74369;SDS011;71062;44.520;11.342;2024-03-02T12:52:05;3.30;;;1.70;;
74369;SDS011;71062;44.520;11.342;2024-03-02T12:54:31;2.60;;;1.13;;
74369;SDS011;71062;44.520;11.342;2024-03-02T12:56:58;2.28;;;1.17;;
74369;SDS011;71062;44.520;11.342;2024-03-02T12:59:24;1.70;;;1.17;;
74369;SDS011;71062;44.520;11.342;2024-03-02T13:01:55;1.77;;;1.30;;
74369;SDS011;71062;44.520;11.342;2024-03-02T13:04:23;1.77;;;1.05;;
74369;SDS011;71062;44.520;11.342;2024-03-02T13:06:49;3.95;;;1.80;;
74369;SDS011;71062;44.520;11.342;2024-03-02T13:09:16;1.95;;;1.20;;
74369;SDS011;71062;44.520;11.342;2024-03-02T13:11:42;2.75;;;1.23;;
74369;SDS011;71062;44.520;11.342;2024-03-02T13:14:07;2.45;;;1.20;;
74369;SDS011;71062;44.520;11.342;2024-03-02T13:16:38;2.15;;;1.23;;
74369;SDS011;71062;44.520;11.342;2024-03-02T13:19:04;2.90;;;1.30;;
74369;SDS011;71062;44.520;11.342;2024-03-02T13:21:29;3.25;;;1.10;;
74369;SDS011;71062;44.520;11.342;2024-03-02T13:23:54;2.58;;;1.20;;
74369;SDS011;71062;44.520;11.342;2024-03-02T13:26:20;1.48;;;0.80;;
74369;SDS011;71062;44.520;11.342;2024-03-02T13:28:46;1.23;;;0.80;;
74369;SDS011;71062;44.520;11.342;2024-03-02T13:31:11;3.03;;;1.00;;
74369;SDS011;71062;44.520;11.342;2024-03-02T13:33:37;2.28;;;0.98;;
74369;SDS011;71062;44.520;11.342;2024-03-02T13:36:02;2.08;;;1.00;;
74369;SDS011;71062;44.520;11.342;2024-03-02T13:38:28;1.60;;;1.00;;
74369;SDS011;71062;44.520;11.342;2024-03-02T13:40:53;1.60;;;0.75;;
74369;SDS011;71062;44.520;11.342;2024-03-02T13:43:19;2.28;;;0.77;;
74369;SDS011;71062;44.520;11.342;2024-03-02T13:45:44;1.67;;;0.95;;
74369;SDS011;71062;44.520;11.342;2024-03-02T13:48:10;0.85;;;0.60;;
74369;SDS011;71062;44.520;11.342;2024-03-02T13:50:35;2.75;;;1.10;;
74369;SDS011;71062;44.520;11.342;2024-03-02T13:53:01;1.15;;;0.77;;
74369;SDS011;71062;44.520;11.342;2024-03-02T13:55:28;1.23;;;0.60;;
74369;SDS011;71062;44.520;11.342;2024-03-02T13:57:53;2.17;;;0.80;;
74369;SDS011;71062;44.520;11.342;2024-03-02T14:00:18;2.42;;;1.00;;
74369;SDS011;71062;44.520;11.342;2024-03-02T14:02:47;2.60;;;1.10;;
74369;SDS011;71062;44.520;11.342;2024-03-02T14:05:17;2.53;;;1.30;;
74369;SDS011;71062;44.520;11.342;2024-03-02T14:07:52;2.60;;;1.60;;
74369;SDS011;71062;44.520;11.342;2024-03-02T14:10:17;2.40;;;1.70;;
74369;SDS011;71062;44.520;11.342;2024-03-02T14:12:47;2.90;;;1.98;;
74369;SDS011;71062;44.520;11.342;2024-03-02T14:15:12;4.10;;;1.60;;
74369;SDS011;71062;44.520;11.342;2024-03-02T14:17:38;3.70;;;1.98;;
74369;SDS011;71062;44.520;11.342;2024-03-02T14:20:11;2.80;;;2.20;;
74369;SDS011;71062;44.520;11.342;2024-03-02T14:22:41;2.13;;;1.90;;
74369;SDS011;71062;44.520;11.342;2024-03-02T14:25:12;3.25;;;1.92;;
74369;SDS011;71062;44.520;11.342;2024-03-02T14:27:37;3.65;;;2.92;;
74369;SDS011;71062;44.520;11.342;2024-03-02T14:30:03;3.35;;;2.88;;